首页
METAR-TAF:

METAR-TAF

机场 :

Houma-Terrebonne Airport

霍玛, 路易斯安那州, 美国

纬度: 29-34N, 经度: 090-40W, 海拔: 3米

当前天气观测

该预报发布于29分钟前的07:55 UTC
风速4节,风向南转南东
温度 15°C
湿度 100%
气压 1014 hPa
能見度: 11.3公里
阴天层高于9000英尺

METAR: KHUM 050755Z AUTO 15004KT 7SM OVC090 15/15 A2994 RMK AO2 T01530146

时间: 03:24 (08:24 UTC)

预报

该预报发布于3小时和4分钟前的05:20 UTC
预报有效从05日的 06点(UTC)到 06日的 06点(UTC)
风速4节,风向北转东北
能見度: 10公里
散云层高于6000英尺
阴天层高于8000英尺
小雨
从 05日的 1200点(UTC)
风速4节,风向多变
能見度: 10公里
散云层高于1500英尺
多云层高于6000英尺
从 05日的 1300点(UTC)
风速5节,风向北转东北
能見度: 10公里
散云层高于2000英尺
多云层高于5000英尺
从 05日的 1700点(UTC)
风速7节,风向东转东北
能見度: 10公里
散云层高于2500英尺
多云层高于9000英尺

TAF: KHUM 050520Z 0506/0606 03004KT P6SM -RA SCT060 OVC080 FM051200 VRB04KT P6SM SCT015 BKN060 FM051300 02005KT P6SM SCT020 BKN050 FM051700 06007KT P6SM SCT025 BKN090

超过4000个机场的气象观测和天气预报(METAR&TAF报告)。

可查询的气象台以黄色和红色小点在地图上表示。

将鼠标移到小点上方,可查看气象台名称。

然后点击查看天气观测和预报。

如需切换地图:点击带黑十字的绿色按钮放大地图;点击带横线的绿色按钮缩小地图;或者点击绿色箭头查看邻近地区的地图。


METAR-TAF: